Time;durP1;ratioP1;P1;durP2;ratioP2;P2;SDS_P1;SDS_P2;PMS_P1;PMS_P2;Temp;Humidity;BMP_temperature;BMP_pressure;BME280_temperature;BME280_humidity;BME280_pressure;Samples;Min_cycle;Max_cycle;Signal;HPM_P1;HPM_P2
2021/10/20 00:01:21;;;;;;;8.52;2.90;;;;;;;;;;4904038;29;20039;-83
2021/10/20 00:03:49;;;;;;;6.45;2.60;;;;;;;;;;4908650;28;20044;-83
2021/10/20 00:06:15;;;;;;;7.18;2.70;;;;;;;;;;4910179;29;20178;-82
2021/10/20 00:08:42;;;;;;;7.15;3.00;;;;;;;;;;4901499;28;20040;-83
2021/10/20 00:11:08;;;;;;;8.30;2.45;;;;;;;;;;4898842;29;20147;-84
2021/10/20 00:13:38;;;;;;;6.82;2.70;;;;;;;;;;4881764;29;20131;-83
2021/10/20 00:16:05;;;;;;;6.88;2.70;;;;;;;;;;4904498;29;20119;-84
2021/10/20 00:18:33;;;;;;;6.65;2.70;;;;;;;;;;4903840;28;20452;-84
2021/10/20 00:21:04;;;;;;;7.30;2.45;;;;;;;;;;4904215;29;20036;-84
2021/10/20 00:23:31;;;;;;;8.13;2.80;;;;;;;;;;4900345;29;20055;-85
2021/10/20 00:25:59;;;;;;;6.97;2.63;;;;;;;;;;4902621;29;20305;-83
2021/10/20 00:28:27;;;;;;;6.55;2.88;;;;;;;;;;4905787;28;20118;-83
2021/10/20 00:30:53;;;;;;;6.70;2.40;;;;;;;;;;4912874;28;20039;-84
2021/10/20 00:33:20;;;;;;;6.95;2.60;;;;;;;;;;4904096;28;20174;-83
2021/10/20 00:35:46;;;;;;;7.22;2.53;;;;;;;;;;4903799;29;20509;-84
2021/10/20 00:38:13;;;;;;;7.78;2.40;;;;;;;;;;4904609;28;20669;-82
2021/10/20 00:40:41;;;;;;;6.43;2.50;;;;;;;;;;4901689;29;20037;-85
2021/10/20 00:43:07;;;;;;;6.05;2.20;;;;;;;;;;4904363;29;20385;-83
2021/10/20 00:45:35;;;;;;;7.03;2.63;;;;;;;;;;4900786;29;20127;-85
2021/10/20 00:48:02;;;;;;;7.22;2.50;;;;;;;;;;4907930;28;20083;-83
2021/10/20 00:50:29;;;;;;;6.88;2.50;;;;;;;;;;4901808;29;20028;-84
2021/10/20 00:52:58;;;;;;;6.70;2.30;;;;;;;;;;4896621;29;20467;-83
2021/10/20 00:55:26;;;;;;;5.50;1.80;;;;;;;;;;4902588;29;20086;-83
2021/10/20 00:57:53;;;;;;;4.93;2.10;;;;;;;;;;4907750;28;20067;-82
2021/10/20 01:00:19;;;;;;;6.13;1.98;;;;;;;;;;4911655;29;20081;-83
2021/10/20 01:02:46;;;;;;;5.43;2.03;;;;;;;;;;4908552;28;20047;-83
2021/10/20 01:05:13;;;;;;;5.40;2.10;;;;;;;;;;4895555;29;20531;-83
2021/10/20 01:07:40;;;;;;;7.03;2.17;;;;;;;;;;4895229;29;20031;-83
2021/10/20 01:10:08;;;;;;;5.95;2.00;;;;;;;;;;4911710;28;20157;-83
2021/10/20 01:12:36;;;;;;;6.80;2.17;;;;;;;;;;4908990;29;20036;-83
2021/10/20 01:15:10;;;;;;;8.23;2.38;;;;;;;;;;4903093;29;20047;-83
2021/10/20 01:17:37;;;;;;;8.15;2.25;;;;;;;;;;4925236;29;20024;-84
2021/10/20 01:20:03;;;;;;;;;;;;;;;;;;4932140;28;20560;-84
2021/10/20 01:22:30;;;;;;;6.63;2.47;;;;;;;;;;4925080;29;19946;-84
2021/10/20 01:24:57;;;;;;;6.93;2.50;;;;;;;;;;4918729;28;20067;-84
2021/10/20 01:27:23;;;;;;;5.97;2.20;;;;;;;;;;4916721;28;20032;-84
2021/10/20 01:29:49;;;;;;;5.25;1.83;;;;;;;;;;4924015;28;20043;-84
2021/10/20 01:32:17;;;;;;;8.32;2.08;;;;;;;;;;4929806;29;20038;-82
2021/10/20 01:34:44;;;;;;;4.63;1.85;;;;;;;;;;4913161;28;20043;-83
2021/10/20 01:37:11;;;;;;;5.93;2.38;;;;;;;;;;4920229;28;20059;-82
2021/10/20 01:39:38;;;;;;;6.95;2.63;;;;;;;;;;4910231;28;20036;-84
2021/10/20 01:42:05;;;;;;;7.53;2.38;;;;;;;;;;4910661;29;20104;-83
2021/10/20 01:44:31;;;;;;;6.15;2.35;;;;;;;;;;4913414;29;20120;-84
2021/10/20 01:46:58;;;;;;;6.03;2.00;;;;;;;;;;4911058;28;20031;-83
2021/10/20 01:49:24;;;;;;;;;;;;;;;;;;4911502;28;20036;-84
2021/10/20 01:51:50;;;;;;;7.15;2.15;;;;;;;;;;4910701;28;19918;-84
2021/10/20 01:54:17;;;;;;;;;;;;;;;;;;4908738;28;20401;-84
2021/10/20 01:56:45;;;;;;;;;;;;;;;;;;4912073;28;19934;-83
2021/10/20 01:59:13;;;;;;;7.07;2.50;;;;;;;;;;4914377;29;20619;-85
2021/10/20 02:01:39;;;;;;;;;;;;;;;;;;4912479;28;20524;-85
2021/10/20 02:04:13;;;;;;;6.47;2.25;;;;;;;;;;4915379;29;19930;-83
2021/10/20 02:06:44;;;;;;;7.82;2.40;;;;;;;;;;4906407;28;20431;-84
2021/10/20 02:09:14;;;;;;;5.80;2.10;;;;;;;;;;4915210;29;20143;-84
2021/10/20 02:11:42;;;;;;;6.63;2.13;;;;;;;;;;4910053;28;20040;-83
2021/10/20 02:14:08;;;;;;;5.70;2.22;;;;;;;;;;4914201;29;20032;-83
2021/10/20 02:16:35;;;;;;;6.53;2.00;;;;;;;;;;4903382;28;20063;-84
2021/10/20 02:19:02;;;;;;;4.80;1.92;;;;;;;;;;4906182;29;20042;-83
2021/10/20 02:21:29;;;;;;;5.55;2.13;;;;;;;;;;4913223;29;20031;-84
2021/10/20 02:23:56;;;;;;;6.30;2.25;;;;;;;;;;4912794;28;20048;-84
2021/10/20 02:26:22;;;;;;;5.30;2.10;;;;;;;;;;4908707;29;21390;-82
2021/10/20 02:28:50;;;;;;;6.30;2.00;;;;;;;;;;4911054;28;20382;-84
2021/10/20 02:31:17;;;;;;;6.80;2.20;;;;;;;;;;4914881;29;20566;-83
2021/10/20 02:33:43;;;;;;;5.90;2.10;;;;;;;;;;4902590;28;20099;-84
2021/10/20 02:36:10;;;;;;;6.30;2.35;;;;;;;;;;4916010;29;20043;-84
2021/10/20 02:38:36;;;;;;;;;;;;;;;;;;4920357;28;20056;-83
2021/10/20 02:41:04;;;;;;;4.80;2.00;;;;;;;;;;4910665;28;19965;-83
2021/10/20 02:43:35;;;;;;;4.47;1.73;;;;;;;;;;4910087;28;20067;-85
2021/10/20 02:46:02;;;;;;;6.65;2.28;;;;;;;;;;4914340;29;20123;-84
2021/10/20 02:48:28;;;;;;;5.50;2.10;;;;;;;;;;4912687;28;20088;-84
2021/10/20 02:50:55;;;;;;;6.00;2.00;;;;;;;;;;4911627;29;20040;-82
2021/10/20 02:53:21;;;;;;;;;;;;;;;;;;4914543;29;20053;-83
2021/10/20 02:55:48;;;;;;;5.55;2.10;;;;;;;;;;4907992;29;19915;-84
2021/10/20 02:58:15;;;;;;;5.55;2.05;;;;;;;;;;4911839;29;20641;-83
2021/10/20 03:00:42;;;;;;;5.68;2.33;;;;;;;;;;4905011;28;20044;-84
2021/10/20 03:03:08;;;;;;;6.22;2.03;;;;;;;;;;4911477;29;20035;-83
2021/10/20 03:05:35;;;;;;;6.38;2.13;;;;;;;;;;4907081;28;20024;-83
2021/10/20 03:08:01;;;;;;;5.95;2.20;;;;;;;;;;4909905;29;20055;-84
2021/10/20 03:10:28;;;;;;;5.95;2.10;;;;;;;;;;4922405;28;20094;-83
2021/10/20 03:12:55;;;;;;;5.75;1.98;;;;;;;;;;4921650;29;20517;-83
2021/10/20 03:15:22;;;;;;;6.22;2.00;;;;;;;;;;4912940;28;20039;-83
2021/10/20 03:17:48;;;;;;;6.32;2.20;;;;;;;;;;4914081;29;20049;-83
2021/10/20 03:20:15;;;;;;;6.82;2.10;;;;;;;;;;4900192;28;20031;-84
2021/10/20 03:22:41;;;;;;;;;;;;;;;;;;4915120;29;20043;-83
2021/10/20 03:25:08;;;;;;;6.35;2.00;;;;;;;;;;4920888;28;19919;-84
2021/10/20 03:27:39;;;;;;;6.97;2.13;;;;;;;;;;4913489;29;20051;-82
2021/10/20 03:30:06;;;;;;;5.18;1.85;;;;;;;;;;4914309;28;20147;-83
2021/10/20 03:32:32;;;;;;;;;;;;;;;;;;4912734;29;20024;-82
2021/10/20 03:35:00;;;;;;;6.28;1.83;;;;;;;;;;4911485;28;20128;-82
2021/10/20 03:37:27;;;;;;;7.05;2.25;;;;;;;;;;4920433;29;20031;-84
2021/10/20 03:39:53;;;;;;;6.30;2.50;;;;;;;;;;4918218;28;20039;-84
2021/10/20 03:42:21;;;;;;;5.78;2.30;;;;;;;;;;4919151;29;20039;-84
2021/10/20 03:44:48;;;;;;;7.05;2.75;;;;;;;;;;4934617;28;20047;-83
2021/10/20 03:47:15;;;;;;;7.28;2.45;;;;;;;;;;4920224;28;20428;-84
2021/10/20 03:49:41;;;;;;;6.38;2.38;;;;;;;;;;4921930;28;20039;-83
2021/10/20 03:52:08;;;;;;;5.43;2.00;;;;;;;;;;4919229;28;20028;-83
2021/10/20 03:54:35;;;;;;;6.80;2.42;;;;;;;;;;4918539;28;20043;-84
2021/10/20 03:57:02;;;;;;;5.88;2.22;;;;;;;;;;4926077;28;20046;-83
2021/10/20 03:59:29;;;;;;;6.07;2.47;;;;;;;;;;4917338;28;20024;-83
2021/10/20 04:01:55;;;;;;;6.88;2.40;;;;;;;;;;4923746;29;20819;-84
2021/10/20 04:04:22;;;;;;;7.68;2.38;;;;;;;;;;4914338;29;20494;-82
2021/10/20 04:06:49;;;;;;;7.07;2.20;;;;;;;;;;4912688;28;20146;-83
2021/10/20 04:09:15;;;;;;;5.90;2.20;;;;;;;;;;4916008;29;20067;-83
2021/10/20 04:11:43;;;;;;;8.10;2.35;;;;;;;;;;4908098;28;20035;-83
2021/10/20 04:14:10;;;;;;;7.38;2.50;;;;;;;;;;4913374;29;20549;-84
2021/10/20 04:16:36;;;;;;;7.63;2.50;;;;;;;;;;4907677;28;20087;-84
2021/10/20 04:19:03;;;;;;;5.88;2.35;;;;;;;;;;4908859;29;20039;-84
2021/10/20 04:21:29;;;;;;;6.65;2.55;;;;;;;;;;4910426;28;20123;-84
2021/10/20 04:23:56;;;;;;;5.85;2.28;;;;;;;;;;4907631;29;20039;-84
2021/10/20 04:26:23;;;;;;;7.38;2.53;;;;;;;;;;4905308;29;20044;-83
2021/10/20 04:28:50;;;;;;;6.60;2.50;;;;;;;;;;4905439;29;20131;-83
2021/10/20 04:31:16;;;;;;;6.20;2.50;;;;;;;;;;4913534;28;20822;-83
2021/10/20 04:33:43;;;;;;;7.88;2.50;;;;;;;;;;4900510;29;20592;-84
2021/10/20 04:36:10;;;;;;;5.97;2.28;;;;;;;;;;4911438;28;20047;-82
2021/10/20 04:38:37;;;;;;;6.68;2.58;;;;;;;;;;4908264;29;20145;-83
2021/10/20 04:41:04;;;;;;;5.88;2.22;;;;;;;;;;4915399;28;20070;-83
2021/10/20 04:43:31;;;;;;;7.00;2.40;;;;;;;;;;4914577;29;20081;-83
2021/10/20 04:45:58;;;;;;;8.50;2.50;;;;;;;;;;4923157;28;20166;-84
2021/10/20 04:48:25;;;;;;;5.45;2.03;;;;;;;;;;4923523;28;20032;-82
2021/10/20 04:50:52;;;;;;;5.95;2.30;;;;;;;;;;4903430;28;20046;-84
2021/10/20 04:53:20;;;;;;;6.90;2.47;;;;;;;;;;4906621;29;20086;-82
2021/10/20 04:55:46;;;;;;;8.38;2.70;;;;;;;;;;4897991;28;20810;-82
2021/10/20 04:58:12;;;;;;;6.35;2.50;;;;;;;;;;4920447;29;20522;-82
2021/10/20 05:00:39;;;;;;;7.03;2.65;;;;;;;;;;4906079;28;20068;-84
2021/10/20 05:03:06;;;;;;;7.97;2.53;;;;;;;;;;4913681;29;20044;-82
2021/10/20 05:05:33;;;;;;;5.88;2.35;;;;;;;;;;4911305;28;20474;-83
2021/10/20 05:08:00;;;;;;;7.70;2.20;;;;;;;;;;4904468;29;20050;-82
2021/10/20 05:10:27;;;;;;;6.55;2.50;;;;;;;;;;4888706;29;20039;-82
2021/10/20 05:12:58;;;;;;;7.25;2.35;;;;;;;;;;4901223;28;20123;-83
2021/10/20 05:15:26;;;;;;;5.50;2.30;;;;;;;;;;4904280;29;20126;-83
2021/10/20 05:17:53;;;;;;;5.22;1.98;;;;;;;;;;4907184;28;20126;-84
2021/10/20 05:20:20;;;;;;;6.38;2.05;;;;;;;;;;4906743;29;20098;-83
2021/10/20 05:22:48;;;;;;;7.22;2.60;;;;;;;;;;4901931;28;20055;-84
2021/10/20 05:25:16;;;;;;;6.75;2.10;;;;;;;;;;4911450;29;20036;-84
2021/10/20 05:27:43;;;;;;;7.38;2.33;;;;;;;;;;4912527;28;20062;-85
2021/10/20 05:30:11;;;;;;;5.78;2.20;;;;;;;;;;4914410;29;20063;-86
2021/10/20 05:32:38;;;;;;;6.32;2.25;;;;;;;;;;4905180;28;20028;-86
2021/10/20 05:35:05;;;;;;;6.68;2.20;;;;;;;;;;4911703;29;20050;-86
2021/10/20 05:37:33;;;;;;;7.65;2.78;;;;;;;;;;4908779;28;20036;-86
2021/10/20 05:40:00;;;;;;;6.32;2.40;;;;;;;;;;4904725;29;20052;-84
2021/10/20 05:42:26;;;;;;;7.72;2.08;;;;;;;;;;4914685;28;20125;-84
2021/10/20 05:44:53;;;;;;;5.30;1.85;;;;;;;;;;4912973;29;20031;-83
2021/10/20 05:47:20;;;;;;;7.05;1.95;;;;;;;;;;4922354;28;20804;-81
2021/10/20 05:49:47;;;;;;;5.45;2.20;;;;;;;;;;4905823;28;20055;-82
2021/10/20 05:52:14;;;;;;;6.22;2.40;;;;;;;;;;4901868;29;20036;-82
2021/10/20 05:54:41;;;;;;;5.97;2.30;;;;;;;;;;4916210;28;20091;-83
2021/10/20 05:57:08;;;;;;;7.18;2.30;;;;;;;;;;4921514;29;20036;-84
2021/10/20 05:59:35;;;;;;;6.75;2.33;;;;;;;;;;4910456;28;20027;-84
2021/10/20 06:02:01;;;;;;;8.38;2.33;;;;;;;;;;4915468;29;20035;-84
2021/10/20 06:04:29;;;;;;;8.15;2.10;;;;;;;;;;4903386;28;20039;-83
2021/10/20 06:06:56;;;;;;;5.60;2.22;;;;;;;;;;4910214;29;20798;-83
2021/10/20 06:09:23;;;;;;;8.38;2.10;;;;;;;;;;4909575;28;20038;-85
2021/10/20 06:11:50;;;;;;;5.50;1.95;;;;;;;;;;4905518;29;20043;-85
2021/10/20 06:14:16;;;;;;;5.68;2.15;;;;;;;;;;4907088;28;20024;-84
2021/10/20 06:16:44;;;;;;;5.85;1.95;;;;;;;;;;4880419;29;20032;-85
2021/10/20 06:19:11;;;;;;;6.45;2.20;;;;;;;;;;4906713;28;20755;-84
2021/10/20 06:21:38;;;;;;;6.03;2.22;;;;;;;;;;4908417;29;20103;-84
2021/10/20 06:24:04;;;;;;;6.10;2.20;;;;;;;;;;4910211;28;20127;-84
2021/10/20 06:26:32;;;;;;;;;;;;;;;;;;4914557;29;20220;-85
2021/10/20 06:29:01;;;;;;;6.38;2.10;;;;;;;;;;4905178;28;19922;-85
2021/10/20 06:31:28;;;;;;;7.20;2.25;;;;;;;;;;4908041;29;20036;-85
2021/10/20 06:33:55;;;;;;;6.47;1.98;;;;;;;;;;4900876;28;20130;-85
2021/10/20 06:36:21;;;;;;;5.43;2.08;;;;;;;;;;4894404;28;20405;-84
2021/10/20 06:38:48;;;;;;;8.05;2.08;;;;;;;;;;4895730;29;20446;-83
2021/10/20 06:41:15;;;;;;;7.75;2.22;;;;;;;;;;4869198;29;20060;-84
2021/10/20 06:43:41;;;;;;;6.93;2.13;;;;;;;;;;4887484;29;20127;-84
2021/10/20 06:46:08;;;;;;;8.13;2.20;;;;;;;;;;4888285;29;20135;-84
2021/10/20 06:48:35;;;;;;;5.80;1.90;;;;;;;;;;4850069;29;20047;-84
2021/10/20 06:51:01;;;;;;;;;;;;;;;;;;4869387;29;20037;-85
2021/10/20 06:53:29;;;;;;;7.57;1.92;;;;;;;;;;4864898;29;20111;-85
2021/10/20 06:55:55;;;;;;;6.65;1.80;;;;;;;;;;4869383;29;20059;-84
2021/10/20 06:58:21;;;;;;;5.50;1.77;;;;;;;;;;4871290;29;20060;-84
2021/10/20 07:00:49;;;;;;;5.85;1.83;;;;;;;;;;4865138;29;20060;-84
2021/10/20 07:03:17;;;;;;;9.60;2.08;;;;;;;;;;4869443;29;20075;-83
2021/10/20 07:05:44;;;;;;;6.80;1.95;;;;;;;;;;4865443;29;20075;-83
2021/10/20 07:08:11;;;;;;;6.95;1.80;;;;;;;;;;4882829;29;20029;-83
2021/10/20 07:10:38;;;;;;;6.65;1.85;;;;;;;;;;4865553;29;20044;-83
2021/10/20 07:13:05;;;;;;;8.52;2.30;;;;;;;;;;4868150;29;20065;-83
2021/10/20 07:15:33;;;;;;;7.15;2.00;;;;;;;;;;4881929;28;20075;-83
2021/10/20 07:17:59;;;;;;;9.93;2.33;;;;;;;;;;4872168;29;20040;-85
2021/10/20 07:20:26;;;;;;;7.50;2.10;;;;;;;;;;4879487;29;20025;-82
2021/10/20 07:22:53;;;;;;;8.20;2.38;;;;;;;;;;4859693;29;20028;-83
2021/10/20 07:25:19;;;;;;;7.25;2.40;;;;;;;;;;4884192;29;20044;-84
2021/10/20 07:27:48;;;;;;;10.32;2.42;;;;;;;;;;4868035;29;20039;-83
2021/10/20 07:30:15;;;;;;;7.25;1.92;;;;;;;;;;4873451;29;21501;-83
2021/10/20 07:32:43;;;;;;;8.15;1.85;;;;;;;;;;4881201;29;20028;-84
2021/10/20 07:35:12;;;;;;;9.23;2.22;;;;;;;;;;4875061;29;20123;-84
2021/10/20 07:37:40;;;;;;;5.50;1.70;;;;;;;;;;4867983;29;20032;-84
2021/10/20 07:40:07;;;;;;;6.90;1.80;;;;;;;;;;4885976;28;20123;-84
2021/10/20 07:42:36;;;;;;;7.90;1.80;;;;;;;;;;4885413;29;20493;-82
2021/10/20 07:45:04;;;;;;;6.97;1.80;;;;;;;;;;4867647;29;20445;-83
2021/10/20 07:47:31;;;;;;;6.65;2.13;;;;;;;;;;4868305;29;20036;-83
2021/10/20 07:49:58;;;;;;;7.13;2.35;;;;;;;;;;4884110;29;20471;-83
2021/10/20 07:52:28;;;;;;;7.68;2.58;;;;;;;;;;4870538;29;20100;-83
2021/10/20 07:54:55;;;;;;;9.77;2.40;;;;;;;;;;4875379;29;20131;-82
2021/10/20 07:57:22;;;;;;;6.88;2.17;;;;;;;;;;4886039;29;20040;-83
2021/10/20 07:59:49;;;;;;;7.93;2.70;;;;;;;;;;4868584;29;20449;-83
2021/10/20 08:02:16;;;;;;;8.88;2.22;;;;;;;;;;4874534;29;20029;-83
2021/10/20 08:04:43;;;;;;;7.22;2.38;;;;;;;;;;4881247;29;20032;-83
2021/10/20 08:07:10;;;;;;;6.35;2.13;;;;;;;;;;4879821;29;20103;-83
2021/10/20 08:09:36;;;;;;;6.20;1.75;;;;;;;;;;4898720;29;20476;-85
2021/10/20 08:12:03;;;;;;;6.10;1.65;;;;;;;;;;4876593;29;20036;-82
2021/10/20 08:14:31;;;;;;;7.13;1.77;;;;;;;;;;4872573;29;20103;-83
2021/10/20 08:16:58;;;;;;;7.40;2.20;;;;;;;;;;4867983;29;20032;-83
2021/10/20 08:19:26;;;;;;;6.93;1.85;;;;;;;;;;4869390;29;20048;-84
2021/10/20 08:21:53;;;;;;;4.78;1.50;;;;;;;;;;4881087;29;20085;-85
2021/10/20 08:24:20;;;;;;;3.85;1.30;;;;;;;;;;4868276;29;20076;-84
2021/10/20 08:26:46;;;;;;;5.13;1.55;;;;;;;;;;4866036;29;22529;-83
2021/10/20 08:29:13;;;;;;;6.32;1.83;;;;;;;;;;4884744;29;20024;-84
2021/10/20 08:31:40;;;;;;;5.40;1.80;;;;;;;;;;4872990;29;20052;-86
2021/10/20 08:34:06;;;;;;;4.85;1.23;;;;;;;;;;4887013;29;20523;-86
2021/10/20 08:36:34;;;;;;;4.80;1.27;;;;;;;;;;4869330;29;20079;-83
2021/10/20 08:39:00;;;;;;;4.80;1.48;;;;;;;;;;4891301;29;20500;-84
2021/10/20 08:41:27;;;;;;;6.57;1.80;;;;;;;;;;4902807;29;20123;-82
2021/10/20 08:43:54;;;;;;;7.30;2.25;;;;;;;;;;4906273;29;20397;-84
2021/10/20 08:46:25;;;;;;;8.45;2.30;;;;;;;;;;4907265;29;20040;-83
2021/10/20 08:48:54;;;;;;;6.70;1.67;;;;;;;;;;4907411;29;20038;-83
2021/10/20 08:51:23;;;;;;;5.15;1.42;;;;;;;;;;4905522;29;20047;-82
2021/10/20 08:53:50;;;;;;;4.32;1.30;;;;;;;;;;4902899;28;20039;-84
2021/10/20 08:56:18;;;;;;;3.30;1.30;;;;;;;;;;4910108;29;20032;-83
2021/10/20 08:58:45;;;;;;;4.57;1.45;;;;;;;;;;4899076;28;20126;-83
2021/10/20 09:01:13;;;;;;;6.50;1.80;;;;;;;;;;4885057;29;20151;-82
2021/10/20 09:03:40;;;;;;;7.85;2.30;;;;;;;;;;4899735;29;20539;-83
2021/10/20 09:06:08;;;;;;;8.05;2.10;;;;;;;;;;4899475;29;20048;-83
2021/10/20 09:08:46;;;;;;;7.32;2.47;;;;;;;;;;4903593;28;20027;-83
2021/10/20 09:11:29;;;;;;;8.70;3.10;;;;;;;;;;4908151;28;20034;-84
2021/10/20 09:14:05;;;;;;;9.30;3.28;;;;;;;;;;4901893;29;20148;-83
2021/10/20 09:16:32;;;;;;;;;;;;;;;;;;4902500;29;20032;-83
2021/10/20 09:18:58;;;;;;;;;;;;;;;;;;4904681;28;19919;-83
2021/10/20 09:21:26;;;;;;;5.03;1.45;;;;;;;;;;4898942;29;19919;-82
2021/10/20 09:23:53;;;;;;;4.07;1.10;;;;;;;;;;4900039;28;20091;-82
2021/10/20 09:26:20;;;;;;;4.43;1.10;;;;;;;;;;4902760;29;20030;-84
2021/10/20 09:28:48;;;;;;;6.10;1.63;;;;;;;;;;4897211;29;21028;-82
2021/10/20 09:31:21;;;;;;;5.85;1.48;;;;;;;;;;4902173;28;20023;-82
2021/10/20 09:33:48;;;;;;;4.07;1.10;;;;;;;;;;4895403;29;21138;-83
2021/10/20 09:36:14;;;;;;;5.57;1.33;;;;;;;;;;4903326;28;20043;-83
2021/10/20 09:38:45;;;;;;;7.30;1.70;;;;;;;;;;4898419;29;20079;-82
2021/10/20 09:41:11;;;;;;;7.07;1.55;;;;;;;;;;4900967;29;20114;-85
2021/10/20 09:43:54;;;;;;;3.70;1.35;;;;;;;;;;4903815;29;20035;-82
2021/10/20 09:46:35;;;;;;;8.82;1.60;;;;;;;;;;4901288;28;20055;-84
2021/10/20 09:49:03;;;;;;;6.13;1.45;;;;;;;;;;4900989;29;20046;-85
2021/10/20 09:51:38;;;;;;;4.15;1.35;;;;;;;;;;4900424;28;20044;-85
2021/10/20 09:54:19;;;;;;;4.38;1.55;;;;;;;;;;4900591;29;20102;-86
2021/10/20 09:56:51;;;;;;;5.03;1.52;;;;;;;;;;4882604;28;20044;-83
2021/10/20 09:59:18;;;;;;;5.25;1.50;;;;;;;;;;4910160;29;20526;-84
2021/10/20 10:01:46;;;;;;;7.45;1.70;;;;;;;;;;4898247;28;20040;-84
2021/10/20 10:04:13;;;;;;;5.38;1.77;;;;;;;;;;4907659;29;20048;-84
2021/10/20 10:06:40;;;;;;;4.07;1.55;;;;;;;;;;4895738;28;20067;-84
2021/10/20 10:09:09;;;;;;;4.40;1.70;;;;;;;;;;4905415;29;20048;-83
2021/10/20 10:11:48;;;;;;;4.88;1.50;;;;;;;;;;4899851;29;20024;-83
2021/10/20 10:14:17;;;;;;;4.25;1.50;;;;;;;;;;4904332;28;20039;-84
2021/10/20 10:16:44;;;;;;;7.03;1.90;;;;;;;;;;4900055;28;20427;-83
2021/10/20 10:19:11;;;;;;;6.65;1.88;;;;;;;;;;4907311;29;20036;-84
2021/10/20 10:21:42;;;;;;;4.80;1.55;;;;;;;;;;4900801;28;20035;-84
2021/10/20 10:24:18;;;;;;;6.05;1.73;;;;;;;;;;4906698;29;20044;-83
2021/10/20 10:27:00;;;;;;;4.65;1.60;;;;;;;;;;4902658;28;20039;-84
2021/10/20 10:29:28;;;;;;;5.32;1.65;;;;;;;;;;4900169;29;20042;-84
2021/10/20 10:31:58;;;;;;;6.20;1.63;;;;;;;;;;4904603;29;20020;-86
2021/10/20 10:34:35;;;;;;;5.60;1.60;;;;;;;;;;4884932;29;20068;-85
2021/10/20 10:37:01;;;;;;;5.22;1.58;;;;;;;;;;4904249;28;20122;-84
2021/10/20 10:39:28;;;;;;;5.20;1.60;;;;;;;;;;4904298;29;20240;-84
2021/10/20 10:42:04;;;;;;;6.15;1.70;;;;;;;;;;4884959;28;20040;-85
2021/10/20 10:44:31;;;;;;;6.32;1.70;;;;;;;;;;4885734;29;20110;-85
2021/10/20 10:47:07;;;;;;;6.13;1.63;;;;;;;;;;4904568;28;20052;-83
2021/10/20 10:49:35;;;;;;;5.70;2.00;;;;;;;;;;4904697;29;20123;-83
2021/10/20 10:52:20;;;;;;;7.10;1.70;;;;;;;;;;4904072;29;20031;-84
2021/10/20 10:54:53;;;;;;;5.57;1.60;;;;;;;;;;4897498;29;20046;-84
2021/10/20 10:57:20;;;;;;;8.05;1.98;;;;;;;;;;4903820;28;20132;-83
2021/10/20 10:59:53;;;;;;;7.13;1.73;;;;;;;;;;4898629;28;20044;-83
2021/10/20 11:02:39;;;;;;;6.47;1.90;;;;;;;;;;4886860;28;20060;-84
2021/10/20 11:05:06;;;;;;;5.38;1.70;;;;;;;;;;4885296;29;20048;-84
2021/10/20 11:07:33;;;;;;;7.60;2.13;;;;;;;;;;4885996;29;20048;-83
2021/10/20 11:10:00;;;;;;;4.57;1.50;;;;;;;;;;4886307;29;20075;-83
2021/10/20 11:12:29;;;;;;;6.72;2.08;;;;;;;;;;4897185;28;20497;-82
2021/10/20 11:14:58;;;;;;;5.63;1.98;;;;;;;;;;4906188;29;20151;-84
2021/10/20 11:17:27;;;;;;;6.38;2.10;;;;;;;;;;4904629;29;20424;-84
2021/10/20 11:19:54;;;;;;;6.80;2.00;;;;;;;;;;4905616;28;20028;-83
2021/10/20 11:22:22;;;;;;;6.15;2.28;;;;;;;;;;4895519;29;20031;-84
2021/10/20 11:24:52;;;;;;;7.10;2.17;;;;;;;;;;4900730;28;20050;-84
2021/10/20 11:27:25;;;;;;;6.43;1.95;;;;;;;;;;4905843;29;20420;-84
2021/10/20 11:29:53;;;;;;;6.03;1.90;;;;;;;;;;4901620;29;20051;-83
2021/10/20 11:32:21;;;;;;;6.28;2.25;;;;;;;;;;4901264;29;20395;-84
2021/10/20 11:34:48;;;;;;;8.98;2.78;;;;;;;;;;4896911;28;22175;-83
2021/10/20 11:37:16;;;;;;;7.25;1.98;;;;;;;;;;4902877;29;20542;-82
2021/10/20 11:39:43;;;;;;;6.93;2.50;;;;;;;;;;4893623;28;20497;-84
2021/10/20 11:42:13;;;;;;;7.05;2.05;;;;;;;;;;4902829;29;21314;-84
2021/10/20 11:44:40;;;;;;;7.20;2.42;;;;;;;;;;4904941;28;20054;-83
2021/10/20 11:47:09;;;;;;;8.07;2.22;;;;;;;;;;4900280;29;20143;-84
2021/10/20 11:49:36;;;;;;;7.20;2.33;;;;;;;;;;4884996;28;20039;-83
2021/10/20 11:52:07;;;;;;;5.88;2.00;;;;;;;;;;4907592;28;20900;-84
2021/10/20 11:54:37;;;;;;;6.22;1.80;;;;;;;;;;4907181;28;20203;-85
2021/10/20 11:57:05;;;;;;;8.57;2.60;;;;;;;;;;4923301;29;20648;-84
2021/10/20 11:59:31;;;;;;;6.82;2.13;;;;;;;;;;4910546;28;20047;-87
2021/10/20 12:02:00;;;;;;;7.07;2.08;;;;;;;;;;4911981;29;20030;-83
2021/10/20 12:04:31;;;;;;;8.15;2.70;;;;;;;;;;4905771;28;20794;-84
2021/10/20 12:06:58;;;;;;;7.00;2.30;;;;;;;;;;4905145;29;20395;-83
2021/10/20 12:09:26;;;;;;;7.60;2.55;;;;;;;;;;4895593;29;20118;-84
2021/10/20 12:11:53;;;;;;;7.22;2.30;;;;;;;;;;4910445;29;20407;-84
2021/10/20 12:14:21;;;;;;;14.73;11.25;;;;;;;;;;4905257;28;20043;-83
2021/10/20 12:16:49;;;;;;;9.05;2.50;;;;;;;;;;4901896;29;20048;-84
2021/10/20 12:19:21;;;;;;;6.78;2.50;;;;;;;;;;4885914;29;20032;-84
2021/10/20 12:21:47;;;;;;;7.80;2.42;;;;;;;;;;4904655;28;20036;-84
2021/10/20 12:24:16;;;;;;;7.18;2.58;;;;;;;;;;4911216;29;20036;-84
2021/10/20 12:26:43;;;;;;;6.93;2.40;;;;;;;;;;4895853;28;20169;-85
2021/10/20 12:29:11;;;;;;;8.77;2.88;;;;;;;;;;4908776;29;20036;-85
2021/10/20 12:31:38;;;;;;;11.48;2.75;;;;;;;;;;4900841;29;20046;-85
2021/10/20 12:34:06;;;;;;;7.80;2.38;;;;;;;;;;4903216;29;20198;-85
2021/10/20 12:36:33;;;;;;;6.93;2.60;;;;;;;;;;4903542;28;20040;-86
2021/10/20 12:39:01;;;;;;;7.70;2.03;;;;;;;;;;4883609;29;20070;-85
2021/10/20 12:41:28;;;;;;;5.90;2.15;;;;;;;;;;4903766;28;20039;-83
2021/10/20 12:43:56;;;;;;;6.25;2.13;;;;;;;;;;4887425;29;20028;-85
2021/10/20 12:46:23;;;;;;;7.72;2.20;;;;;;;;;;4904303;28;20066;-84
2021/10/20 12:48:51;;;;;;;7.45;2.40;;;;;;;;;;4905751;29;20035;-83
2021/10/20 12:51:19;;;;;;;6.75;2.30;;;;;;;;;;4904139;28;20621;-84
2021/10/20 12:53:50;;;;;;;6.55;1.90;;;;;;;;;;4899450;29;21282;-84
2021/10/20 12:56:18;;;;;;;6.53;1.80;;;;;;;;;;4914123;28;20360;-84
2021/10/20 12:58:46;;;;;;;6.07;1.90;;;;;;;;;;4900875;29;20036;-85
2021/10/20 13:01:13;;;;;;;7.93;2.15;;;;;;;;;;4905873;28;20067;-85
2021/10/20 13:03:40;;;;;;;7.72;2.10;;;;;;;;;;4899225;28;20063;-84
2021/10/20 13:06:09;;;;;;;6.05;1.90;;;;;;;;;;4905882;29;20992;-85
2021/10/20 13:08:37;;;;;;;7.55;2.00;;;;;;;;;;4902063;29;20028;-87
2021/10/20 13:11:05;;;;;;;6.80;2.13;;;;;;;;;;4906830;28;20661;-85
2021/10/20 13:13:31;;;;;;;5.25;1.80;;;;;;;;;;4898608;29;20028;-85
2021/10/20 13:15:58;;;;;;;6.78;1.75;;;;;;;;;;4908233;28;20511;-86
2021/10/20 13:18:29;;;;;;;5.47;1.75;;;;;;;;;;4886160;29;20043;-83
2021/10/20 13:20:56;;;;;;;7.80;2.08;;;;;;;;;;4910840;29;20251;-85
2021/10/20 13:23:23;;;;;;;5.28;1.77;;;;;;;;;;4903440;29;20143;-85
2021/10/20 13:25:50;;;;;;;7.32;1.85;;;;;;;;;;4885991;28;20443;-85
2021/10/20 13:28:16;;;;;;;6.05;1.90;;;;;;;;;;4893132;29;20046;-84
2021/10/20 13:30:43;;;;;;;6.47;1.92;;;;;;;;;;4906928;28;20143;-86
2021/10/20 13:33:11;;;;;;;6.07;1.80;;;;;;;;;;4915347;29;20035;-83
2021/10/20 13:35:38;;;;;;;7.03;2.13;;;;;;;;;;4909076;28;20126;-83
2021/10/20 13:38:10;;;;;;;6.65;2.40;;;;;;;;;;4885869;29;20031;-84
2021/10/20 13:40:38;;;;;;;6.50;2.10;;;;;;;;;;4885733;29;20301;-85
2021/10/20 13:43:05;;;;;;;5.13;1.60;;;;;;;;;;4889241;29;20043;-84
2021/10/20 13:45:31;;;;;;;6.43;1.60;;;;;;;;;;4881306;29;20041;-86
2021/10/20 13:47:58;;;;;;;6.72;1.77;;;;;;;;;;4888514;28;20109;-84
2021/10/20 13:50:24;;;;;;;5.25;1.80;;;;;;;;;;4892563;29;20046;-84
2021/10/20 13:52:50;;;;;;;6.47;1.77;;;;;;;;;;4881548;29;20128;-85
2021/10/20 13:55:19;;;;;;;6.45;1.67;;;;;;;;;;4875905;29;20040;-82
2021/10/20 13:57:46;;;;;;;7.60;2.10;;;;;;;;;;4890352;29;20685;-85
2021/10/20 14:00:13;;;;;;;7.63;1.77;;;;;;;;;;4886825;29;20037;-85
2021/10/20 14:02:40;;;;;;;8.75;1.95;;;;;;;;;;4887502;29;20303;-86
2021/10/20 14:05:08;;;;;;;6.57;1.95;;;;;;;;;;4879493;29;20119;-84
2021/10/20 14:07:35;;;;;;;5.13;1.65;;;;;;;;;;4887832;29;20096;-85
2021/10/20 14:10:06;;;;;;;9.05;1.90;;;;;;;;;;4875392;29;20041;-85
2021/10/20 14:12:33;;;;;;;6.45;1.88;;;;;;;;;;4867892;28;20568;-85
2021/10/20 14:14:59;;;;;;;7.85;2.00;;;;;;;;;;4892608;28;20127;-85
2021/10/20 14:17:27;;;;;;;5.68;1.60;;;;;;;;;;4894584;29;20124;-84
2021/10/20 14:19:54;;;;;;;4.70;1.48;;;;;;;;;;4869051;29;20040;-85
2021/10/20 14:22:20;;;;;;;5.90;1.70;;;;;;;;;;4887575;29;20040;-85
2021/10/20 14:24:48;;;;;;;5.60;1.70;;;;;;;;;;4886609;29;20767;-84
2021/10/20 14:27:14;;;;;;;6.43;2.00;;;;;;;;;;4887817;29;20175;-84
2021/10/20 14:29:40;;;;;;;4.93;1.75;;;;;;;;;;4884547;29;20051;-86
2021/10/20 14:32:07;;;;;;;4.93;1.70;;;;;;;;;;4878394;29;20063;-83
2021/10/20 14:34:34;;;;;;;5.60;1.80;;;;;;;;;;4886623;29;20667;-83
2021/10/20 14:37:02;;;;;;;7.43;1.65;;;;;;;;;;4886121;29;20059;-84
2021/10/20 14:39:28;;;;;;;5.85;1.58;;;;;;;;;;4880850;29;20048;-85
2021/10/20 14:41:54;;;;;;;7.40;1.65;;;;;;;;;;4908306;29;20042;-83
2021/10/20 14:44:22;;;;;;;4.55;1.60;;;;;;;;;;4905645;28;20038;-85
2021/10/20 14:46:49;;;;;;;6.45;1.70;;;;;;;;;;4905220;29;20124;-83
2021/10/20 14:49:16;;;;;;;6.18;1.80;;;;;;;;;;4910998;28;20036;-84